EZY68AW EHAM-EGMC
Flight info
| Callsign | EZY68AW |
|---|---|
| Flight time | 0h 36m |
| Altitude | 20000 |
| Route | IDRID L980 XAMAN |
| Aircraft | A320/M-SDE2E3FGHIJ1RWXYZ/LB1 |
Departure
| Time | 2026-05-03 23:02 |
|---|---|
| Airport | Amsterdam Airport Schiphol (EHAM) |
Arrival
| Time | 2026-05-03 23:39 |
|---|---|
| Airport | London Southend Airport (EGMC) |
| Time | Latitude | Longitude | Altitude | Speed | Heading |
|---|---|---|---|---|---|
| 2026-05-03 22:35 | 52.30714 | 4.77216 | -2 ft | 0 kts | 3° |
| 2026-05-03 22:53 | 52.30709 | 4.77216 | -2 ft | 2 kts | 3° |
| 2026-05-03 22:53 | 52.30691 | 4.77214 | -3 ft | 3 kts | 3° |
| 2026-05-03 22:53 | 52.30673 | 4.77213 | -4 ft | 3 kts | 11° |
| 2026-05-03 22:53 | 52.30656 | 4.77201 | -4 ft | 3 kts | 49° |
| 2026-05-03 22:54 | 52.30647 | 4.77176 | -4 ft | 3 kts | 86° |
| 2026-05-03 22:54 | 52.30647 | 4.77171 | -4 ft | 0 kts | 94° |
| 2026-05-03 22:57 | 52.30644 | 4.77261 | -4 ft | 17 kts | 92° |
| 2026-05-03 22:57 | 52.30643 | 4.77486 | -2 ft | 20 kts | 89° |
| 2026-05-03 22:57 | 52.30599 | 4.77649 | -3 ft | 5 kts | 150° |
| 2026-05-03 22:57 | 52.30560 | 4.77690 | -2 ft | 10 kts | 144° |
| 2026-05-03 22:58 | 52.30461 | 4.77735 | 1 ft | 13 kts | 231° |
| 2026-05-03 22:58 | 52.30405 | 4.77604 | -2 ft | 9 kts | 229° |
| 2026-05-03 22:58 | 52.30398 | 4.77586 | -3 ft | 0 kts | 238° |
| 2026-05-03 23:01 | 52.30395 | 4.77579 | -3 ft | 4 kts | 237° |
| 2026-05-03 23:01 | 52.30266 | 4.77237 | -7 ft | 75 kts | 235° |
| 2026-05-03 23:01 | 52.29869 | 4.76213 | -6 ft | 136 kts | 236° |
| 2026-05-03 23:02 | 52.29312 | 4.74810 | 428 ft | 149 kts | 236° |
| 2026-05-03 23:02 | 52.28728 | 4.73356 | 987 ft | 158 kts | 233° |
| 2026-05-03 23:02 | 52.28126 | 4.71833 | 1660 ft | 159 kts | 234° |
| 2026-05-03 23:02 | 52.27551 | 4.70328 | 2378 ft | 155 kts | 230° |
| 2026-05-03 23:03 | 52.26836 | 4.69065 | 3052 ft | 150 kts | 220° |
| 2026-05-03 23:03 | 52.26082 | 4.67851 | 3529 ft | 161 kts | 221° |
| 2026-05-03 23:03 | 52.25246 | 4.66517 | 3934 ft | 176 kts | 221° |
| 2026-05-03 23:03 | 52.24384 | 4.64945 | 4319 ft | 194 kts | 236° |
| 2026-05-03 23:04 | 52.23863 | 4.62779 | 4758 ft | 216 kts | 248° |
| 2026-05-03 23:04 | 52.23367 | 4.60366 | 5286 ft | 233 kts | 248° |
| 2026-05-03 23:04 | 52.22837 | 4.57815 | 5851 ft | 250 kts | 248° |
| 2026-05-03 23:04 | 52.22264 | 4.55049 | 6552 ft | 262 kts | 248° |
| 2026-05-03 23:05 | 52.21677 | 4.52215 | 7421 ft | 265 kts | 248° |
| 2026-05-03 23:05 | 52.21083 | 4.49365 | 8339 ft | 267 kts | 248° |
| 2026-05-03 23:05 | 52.20479 | 4.46481 | 9263 ft | 269 kts | 248° |
| 2026-05-03 23:05 | 52.19869 | 4.43586 | 10127 ft | 273 kts | 248° |
| 2026-05-03 23:06 | 52.19615 | 4.42379 | 10362 ft | 279 kts | 248° |
| 2026-05-03 23:06 | 52.19202 | 4.40420 | 10650 ft | 290 kts | 248° |
| 2026-05-03 23:06 | 52.18527 | 4.37233 | 11106 ft | 306 kts | 248° |
| 2026-05-03 23:07 | 52.18289 | 4.36109 | 11277 ft | 311 kts | 248° |
| 2026-05-03 23:07 | 52.17578 | 4.32743 | 11973 ft | 317 kts | 248° |
| 2026-05-03 23:07 | 52.16859 | 4.29335 | 12765 ft | 320 kts | 248° |
| 2026-05-03 23:07 | 52.16128 | 4.25887 | 13550 ft | 324 kts | 248° |
| 2026-05-03 23:08 | 52.15397 | 4.22449 | 14229 ft | 327 kts | 248° |
| 2026-05-03 23:08 | 52.14646 | 4.18934 | 14909 ft | 330 kts | 248° |
| 2026-05-03 23:08 | 52.13878 | 4.15340 | 15604 ft | 333 kts | 248° |
| 2026-05-03 23:08 | 52.13126 | 4.11816 | 16286 ft | 335 kts | 248° |
| 2026-05-03 23:09 | 52.12357 | 4.08220 | 16974 ft | 338 kts | 248° |
| 2026-05-03 23:09 | 52.11581 | 4.04598 | 17657 ft | 340 kts | 248° |
| 2026-05-03 23:09 | 52.10799 | 4.00953 | 18319 ft | 343 kts | 248° |
| 2026-05-03 23:09 | 52.10004 | 3.97265 | 18880 ft | 346 kts | 248° |
| 2026-05-03 23:10 | 52.09204 | 3.93560 | 19445 ft | 349 kts | 248° |
| 2026-05-03 23:10 | 52.08395 | 3.89815 | 19835 ft | 351 kts | 248° |
| 2026-05-03 23:10 | 52.07588 | 3.86080 | 19930 ft | 346 kts | 248° |
| 2026-05-03 23:10 | 52.06815 | 3.82489 | 19940 ft | 329 kts | 248° |
| 2026-05-03 23:11 | 52.06060 | 3.79008 | 19948 ft | 326 kts | 247° |
| 2026-05-03 23:11 | 52.05297 | 3.75525 | 19949 ft | 327 kts | 247° |
| 2026-05-03 23:11 | 52.04533 | 3.72050 | 19946 ft | 327 kts | 247° |
| 2026-05-03 23:11 | 52.03770 | 3.68564 | 19946 ft | 327 kts | 247° |
| 2026-05-03 23:12 | 52.03006 | 3.65070 | 19948 ft | 328 kts | 247° |
| 2026-05-03 23:12 | 52.02241 | 3.61580 | 19947 ft | 328 kts | 247° |
| 2026-05-03 23:12 | 52.01477 | 3.58101 | 19945 ft | 328 kts | 247° |
| 2026-05-03 23:12 | 52.00708 | 3.54602 | 19948 ft | 328 kts | 247° |
| 2026-05-03 23:13 | 51.99927 | 3.51122 | 19947 ft | 328 kts | 244° |
| 2026-05-03 23:13 | 51.98846 | 3.47899 | 19949 ft | 325 kts | 233° |
| 2026-05-03 23:13 | 51.97517 | 3.44946 | 19944 ft | 325 kts | 232° |
| 2026-05-03 23:13 | 51.96182 | 3.41993 | 19948 ft | 325 kts | 232° |
| 2026-05-03 23:14 | 51.94849 | 3.39040 | 19952 ft | 325 kts | 232° |
| 2026-05-03 23:14 | 51.93511 | 3.36084 | 19950 ft | 325 kts | 232° |
| 2026-05-03 23:14 | 51.92175 | 3.33136 | 19943 ft | 325 kts | 232° |
| 2026-05-03 23:14 | 51.90833 | 3.30183 | 19951 ft | 325 kts | 232° |
| 2026-05-03 23:15 | 51.89492 | 3.27241 | 19940 ft | 325 kts | 232° |
| 2026-05-03 23:15 | 51.88150 | 3.24297 | 19948 ft | 325 kts | 232° |
| 2026-05-03 23:15 | 51.86811 | 3.21359 | 19946 ft | 325 kts | 232° |
| 2026-05-03 23:15 | 51.85602 | 3.18264 | 19945 ft | 327 kts | 242° |
| 2026-05-03 23:16 | 51.84834 | 3.14789 | 19945 ft | 331 kts | 254° |
| 2026-05-03 23:16 | 51.84516 | 3.11122 | 19942 ft | 334 kts | 260° |
| 2026-05-03 23:16 | 51.84279 | 3.07381 | 19942 ft | 334 kts | 260° |
| 2026-05-03 23:16 | 51.84039 | 3.03647 | 19936 ft | 334 kts | 260° |
| 2026-05-03 23:17 | 51.83798 | 2.99902 | 19937 ft | 335 kts | 260° |
| 2026-05-03 23:17 | 51.83556 | 2.96165 | 19939 ft | 335 kts | 260° |
| 2026-05-03 23:17 | 51.83313 | 2.92431 | 19937 ft | 335 kts | 260° |
| 2026-05-03 23:17 | 51.83067 | 2.88683 | 19938 ft | 335 kts | 260° |
| 2026-05-03 23:18 | 51.82819 | 2.84940 | 19941 ft | 334 kts | 260° |
| 2026-05-03 23:18 | 51.82572 | 2.81210 | 19939 ft | 335 kts | 259° |
| 2026-05-03 23:18 | 51.82320 | 2.77473 | 19843 ft | 331 kts | 259° |
| 2026-05-03 23:18 | 51.82069 | 2.73814 | 19599 ft | 324 kts | 259° |
| 2026-05-03 23:19 | 51.81826 | 2.70240 | 19361 ft | 318 kts | 259° |
| 2026-05-03 23:19 | 51.81585 | 2.66695 | 19123 ft | 317 kts | 259° |
| 2026-05-03 23:19 | 51.81341 | 2.63159 | 18893 ft | 316 kts | 259° |
| 2026-05-03 23:19 | 51.81097 | 2.59635 | 18655 ft | 315 kts | 259° |
| 2026-05-03 23:20 | 51.80852 | 2.56119 | 18418 ft | 314 kts | 259° |
| 2026-05-03 23:20 | 51.80607 | 2.52613 | 18170 ft | 313 kts | 259° |
| 2026-05-03 23:20 | 51.80366 | 2.49126 | 17914 ft | 312 kts | 259° |
| 2026-05-03 23:20 | 51.80125 | 2.45656 | 17651 ft | 310 kts | 259° |
| 2026-05-03 23:21 | 51.79882 | 2.42195 | 17383 ft | 309 kts | 259° |
| 2026-05-03 23:21 | 51.79639 | 2.38755 | 17126 ft | 308 kts | 259° |
| 2026-05-03 23:21 | 51.79396 | 2.35332 | 16865 ft | 306 kts | 259° |
| 2026-05-03 23:21 | 51.79153 | 2.31924 | 16607 ft | 305 kts | 259° |
| 2026-05-03 23:22 | 51.78666 | 2.25156 | 16098 ft | 302 kts | 259° |
| 2026-05-03 23:22 | 51.78424 | 2.21795 | 15846 ft | 301 kts | 259° |
| 2026-05-03 23:22 | 51.78206 | 2.18439 | 15595 ft | 300 kts | 260° |
| 2026-05-03 23:23 | 51.78013 | 2.15136 | 15353 ft | 299 kts | 260° |
| 2026-05-03 23:23 | 51.77823 | 2.11761 | 15107 ft | 298 kts | 261° |
| 2026-05-03 23:23 | 51.77639 | 2.08475 | 14865 ft | 297 kts | 260° |
| 2026-05-03 23:23 | 51.77450 | 2.05161 | 14622 ft | 296 kts | 260° |
| 2026-05-03 23:24 | 51.77257 | 2.01864 | 14381 ft | 295 kts | 260° |
| 2026-05-03 23:24 | 51.77061 | 1.98574 | 14140 ft | 294 kts | 260° |
| 2026-05-03 23:24 | 51.76864 | 1.95292 | 13903 ft | 293 kts | 260° |
| 2026-05-03 23:24 | 51.76665 | 1.92023 | 13658 ft | 292 kts | 260° |
| 2026-05-03 23:25 | 51.76466 | 1.88768 | 13393 ft | 291 kts | 260° |
| 2026-05-03 23:25 | 51.76266 | 1.85514 | 13134 ft | 291 kts | 260° |
| 2026-05-03 23:25 | 51.76068 | 1.82271 | 12867 ft | 290 kts | 261° |
| 2026-05-03 23:25 | 51.75871 | 1.79037 | 12601 ft | 289 kts | 261° |
| 2026-05-03 23:26 | 51.75675 | 1.75821 | 12264 ft | 289 kts | 261° |
| 2026-05-03 23:26 | 51.75475 | 1.72589 | 11855 ft | 289 kts | 261° |
| 2026-05-03 23:26 | 51.75279 | 1.69448 | 11464 ft | 289 kts | 261° |
| 2026-05-03 23:26 | 51.75072 | 1.66160 | 11057 ft | 290 kts | 261° |
| 2026-05-03 23:27 | 51.74867 | 1.62932 | 10665 ft | 289 kts | 261° |
| 2026-05-03 23:27 | 51.74664 | 1.59698 | 10274 ft | 289 kts | 261° |
| 2026-05-03 23:27 | 51.74462 | 1.56471 | 9889 ft | 289 kts | 261° |
| 2026-05-03 23:27 | 51.74259 | 1.53252 | 9480 ft | 288 kts | 261° |
| 2026-05-03 23:28 | 51.74053 | 1.50051 | 9049 ft | 287 kts | 261° |
| 2026-05-03 23:28 | 51.73847 | 1.46869 | 8633 ft | 281 kts | 261° |
| 2026-05-03 23:28 | 51.73650 | 1.43800 | 8249 ft | 271 kts | 261° |
| 2026-05-03 23:28 | 51.73456 | 1.40785 | 7971 ft | 271 kts | 261° |
| 2026-05-03 23:29 | 51.73259 | 1.37762 | 7847 ft | 270 kts | 261° |
| 2026-05-03 23:29 | 51.73063 | 1.34750 | 7712 ft | 269 kts | 261° |
| 2026-05-03 23:29 | 51.72869 | 1.31771 | 7401 ft | 265 kts | 261° |
| 2026-05-03 23:29 | 51.72678 | 1.28854 | 7011 ft | 265 kts | 261° |
| 2026-05-03 23:30 | 51.72483 | 1.25898 | 6603 ft | 265 kts | 261° |
| 2026-05-03 23:30 | 51.72290 | 1.22957 | 6362 ft | 259 kts | 261° |
| 2026-05-03 23:30 | 51.72107 | 1.20147 | 6285 ft | 246 kts | 261° |
| 2026-05-03 23:30 | 51.71932 | 1.17476 | 6184 ft | 234 kts | 261° |
| 2026-05-03 23:31 | 51.71764 | 1.14934 | 6088 ft | 223 kts | 261° |
| 2026-05-03 23:31 | 51.71604 | 1.12511 | 5991 ft | 212 kts | 261° |
| 2026-05-03 23:31 | 51.71330 | 1.10254 | 5939 ft | 199 kts | 246° |
| 2026-05-03 23:31 | 51.70810 | 1.08194 | 5674 ft | 199 kts | 245° |
| 2026-05-03 23:32 | 51.70291 | 1.06130 | 5406 ft | 199 kts | 246° |
| 2026-05-03 23:32 | 51.69771 | 1.04051 | 5141 ft | 201 kts | 246° |
| 2026-05-03 23:32 | 51.69247 | 1.01951 | 4820 ft | 202 kts | 246° |
| 2026-05-03 23:32 | 51.68726 | 0.99869 | 4494 ft | 198 kts | 246° |
| 2026-05-03 23:33 | 51.68218 | 0.97840 | 4207 ft | 191 kts | 246° |
| 2026-05-03 23:33 | 51.67895 | 0.96551 | 4014 ft | 184 kts | 246° |
| 2026-05-03 23:33 | 51.67427 | 0.94683 | 3753 ft | 175 kts | 246° |
| 2026-05-03 23:33 | 51.66983 | 0.92907 | 3495 ft | 166 kts | 246° |
| 2026-05-03 23:34 | 51.66566 | 0.91242 | 3243 ft | 155 kts | 246° |
| 2026-05-03 23:34 | 51.66079 | 0.89745 | 3011 ft | 148 kts | 236° |
| 2026-05-03 23:34 | 51.65518 | 0.88360 | 2794 ft | 148 kts | 235° |
| 2026-05-03 23:34 | 51.64935 | 0.86996 | 2589 ft | 147 kts | 234° |
| 2026-05-03 23:35 | 51.64346 | 0.85652 | 2388 ft | 147 kts | 234° |
| 2026-05-03 23:35 | 51.63750 | 0.84314 | 2184 ft | 147 kts | 233° |
| 2026-05-03 23:35 | 51.63155 | 0.82987 | 1989 ft | 146 kts | 233° |
| 2026-05-03 23:35 | 51.62551 | 0.81680 | 1800 ft | 146 kts | 232° |
| 2026-05-03 23:36 | 51.61950 | 0.80368 | 1592 ft | 145 kts | 236° |
| 2026-05-03 23:36 | 51.61414 | 0.78993 | 1388 ft | 144 kts | 236° |
| 2026-05-03 23:36 | 51.60832 | 0.77678 | 1214 ft | 145 kts | 233° |
| 2026-05-03 23:36 | 51.60724 | 0.77444 | 1187 ft | 144 kts | 233° |
| 2026-05-03 23:37 | 51.60480 | 0.76915 | 1116 ft | 144 kts | 233° |
| 2026-05-03 23:37 | 51.60124 | 0.76134 | 1026 ft | 144 kts | 234° |
| 2026-05-03 23:37 | 51.59528 | 0.74843 | 832 ft | 144 kts | 232° |
| 2026-05-03 23:37 | 51.58934 | 0.73537 | 621 ft | 145 kts | 235° |
| 2026-05-03 23:38 | 51.58349 | 0.72227 | 389 ft | 143 kts | 234° |
| 2026-05-03 23:38 | 51.57767 | 0.70934 | 181 ft | 142 kts | 234° |
| 2026-05-03 23:38 | 51.57190 | 0.69657 | 48 ft | 136 kts | 233° |
| 2026-05-03 23:38 | 51.56802 | 0.68799 | 54 ft | 51 kts | 235° |
| 2026-05-03 23:39 | 51.56688 | 0.68540 | 56 ft | 28 kts | 234° |
| 2026-05-03 23:39 | 51.56581 | 0.68308 | 56 ft | 18 kts | 232° |
| 2026-05-03 23:39 | 51.56519 | 0.68220 | 61 ft | 8 kts | 253° |
| 2026-05-03 23:39 | 51.56521 | 0.68209 | 62 ft | 0 kts | 290° |
| 2026-05-03 23:40 | 51.60808 | 0.77628 | 1211 ft | 144 kts | 233° |
| 2026-05-03 23:40 | 51.59589 | 0.74969 | 842 ft | 144 kts | 232° |
| 2026-05-03 23:40 | 51.59001 | 0.73690 | 643 ft | 144 kts | 235° |
| 2026-05-03 23:40 | 51.58408 | 0.72357 | 406 ft | 143 kts | 234° |
| 2026-05-03 23:41 | 51.57834 | 0.71082 | 211 ft | 142 kts | 234° |
| 2026-05-03 23:41 | 51.57297 | 0.69889 | 52 ft | 141 kts | 234° |
| 2026-05-03 23:41 | 51.57675 | 0.70729 | 148 ft | 141 kts | 234° |
| 2026-05-03 23:41 | 51.57287 | 0.69869 | 50 ft | 140 kts | 234° |
| 2026-05-03 23:42 | 51.58077 | 0.71620 | 292 ft | 143 kts | 234° |
| 2026-05-03 23:42 | 51.57496 | 0.70328 | 93 ft | 142 kts | 234° |
| 2026-05-03 23:42 | 51.56964 | 0.69155 | 54 ft | 98 kts | 233° |
| 2026-05-03 23:42 | 51.56740 | 0.68658 | 48 ft | 23 kts | 234° |
| 2026-05-03 23:43 | 51.58412 | 0.72365 | 409 ft | 143 kts | 234° |
| 2026-05-03 23:43 | 51.57830 | 0.71072 | 206 ft | 142 kts | 234° |
| 2026-05-03 23:43 | 51.57252 | 0.69790 | 54 ft | 139 kts | 233° |
| 2026-05-03 23:43 | 51.57278 | 0.69848 | 49 ft | 140 kts | 234° |
| 2026-05-03 23:44 | 51.56838 | 0.68879 | 56 ft | 65 kts | 234° |
| 2026-05-03 23:44 | 51.56708 | 0.68585 | 52 ft | 26 kts | 234° |
| 2026-05-03 23:44 | 51.56546 | 0.68213 | 58 ft | 41 kts | 235° |
| 2026-05-03 23:44 | 51.61165 | 0.78448 | 1520 ft | 137 kts | 233° |
| 2026-05-03 23:45 | 51.60579 | 0.77243 | 1561 ft | 137 kts | 233° |
| 2026-05-03 23:45 | 51.60026 | 0.76018 | 1320 ft | 136 kts | 235° |
| 2026-05-03 23:45 | 51.59496 | 0.74773 | 1038 ft | 134 kts | 236° |
| 2026-05-03 23:45 | 51.58956 | 0.73550 | 690 ft | 133 kts | 233° |
| 2026-05-03 23:46 | 51.58400 | 0.72325 | 411 ft | 137 kts | 235° |
| 2026-05-03 23:46 | 51.57831 | 0.71072 | 204 ft | 139 kts | 234° |
| 2026-05-03 23:46 | 51.57261 | 0.69818 | 66 ft | 139 kts | 234° |
| 2026-05-03 23:46 | 51.60097 | 0.76072 | 1083 ft | 138 kts | 234° |
| 2026-05-03 23:47 | 51.58932 | 0.73552 | 656 ft | 137 kts | 233° |
| 2026-05-03 23:47 | 51.58394 | 0.72297 | 446 ft | 137 kts | 235° |
| 2026-05-03 23:47 | 51.57823 | 0.71055 | 205 ft | 139 kts | 234° |
| 2026-05-03 23:47 | 51.57251 | 0.69798 | 67 ft | 139 kts | 234° |
| 2026-05-03 23:48 | 51.59504 | 0.74772 | 875 ft | 135 kts | 235° |
| 2026-05-03 23:48 | 51.58954 | 0.73549 | 688 ft | 135 kts | 233° |
| 2026-05-03 23:48 | 51.58349 | 0.72365 | 375 ft | 139 kts | 234° |
| 2026-05-03 23:48 | 51.57821 | 0.71063 | 172 ft | 140 kts | 235° |
| 2026-05-03 23:49 | 51.57254 | 0.69801 | 52 ft | 136 kts | 234° |
| 2026-05-03 23:49 | 51.59750 | 0.75324 | 916 ft | 141 kts | 233° |
| 2026-05-03 23:49 | 51.59194 | 0.74113 | 747 ft | 136 kts | 234° |
| 2026-05-03 23:49 | 51.58640 | 0.72851 | 526 ft | 140 kts | 234° |
| 2026-05-03 23:50 | 51.58060 | 0.71588 | 283 ft | 142 kts | 234° |
| 2026-05-03 23:50 | 51.57671 | 0.70716 | 142 ft | 142 kts | 234° |
| 2026-05-03 23:50 | 51.57087 | 0.69441 | 51 ft | 132 kts | 234° |